Time;durP1;ratioP1;P1;durP2;ratioP2;P2;SDS_P1;SDS_P2;PMS_P1;PMS_P2;Temp;Humidity;BMP_temperature;BMP_pressure;BME280_temperature;BME280_humidity;BME280_pressure;Samples;Min_cycle;Max_cycle;Signal;HPM_P1;HPM_P2
2021/12/30 00:01:57;;;;;;;46.00;8.02;;;;;;;10.50;100.00;101037.88;5090801;28;20356;-77
2021/12/30 00:04:23;;;;;;;44.72;8.43;;;;;;;10.48;100.00;101029.25;5090869;28;20108;-77
2021/12/30 00:06:50;;;;;;;44.60;8.60;;;;;;;10.46;100.00;101032.94;5091666;28;20080;-76
2021/12/30 00:09:15;;;;;;;46.95;8.60;;;;;;;10.47;100.00;101039.88;5088833;28;20119;-77
2021/12/30 00:11:42;;;;;;;47.78;8.85;;;;;;;10.47;100.00;101032.81;5091386;28;20114;-77
2021/12/30 00:14:08;;;;;;;54.40;10.18;;;;;;;10.50;100.00;101043.13;5091470;28;20055;-77
2021/12/30 00:16:34;;;;;;;48.10;11.20;;;;;;;10.49;100.00;101041.44;5108149;28;20063;-77
2021/12/30 00:18:59;;;;;;;41.03;10.05;;;;;;;10.48;100.00;101037.13;5109935;28;20047;-77
2021/12/30 00:21:25;;;;;;;39.90;10.13;;;;;;;10.49;100.00;101041.44;5109616;28;20383;-77
2021/12/30 00:23:51;;;;;;;36.80;9.65;;;;;;;10.49;100.00;101036.19;5109061;28;20532;-77
2021/12/30 00:26:17;;;;;;;47.28;10.20;;;;;;;10.50;100.00;101043.13;5103141;28;20506;-77
2021/12/30 00:28:42;;;;;;;46.13;10.10;;;;;;;10.49;100.00;101036.19;5101858;28;20029;-77
2021/12/30 00:31:08;;;;;;;52.45;10.30;;;;;;;10.50;100.00;101032.59;5109726;28;20028;-77
2021/12/30 00:33:35;;;;;;;48.03;10.07;;;;;;;10.51;100.00;101039.53;5109093;28;20031;-77
2021/12/30 00:36:08;;;;;;;44.05;9.43;;;;;;;10.54;100.00;101035.84;5091168;28;20118;-77
2021/12/30 00:38:36;;;;;;;43.60;10.13;;;;;;;10.54;100.00;101047.22;5108258;28;20027;-77
2021/12/30 00:41:01;;;;;;;57.50;10.90;;;;;;;10.54;100.00;101052.47;5110278;28;20274;-77
2021/12/30 00:43:27;;;;;;;47.63;10.02;;;;;;;10.55;100.00;101054.16;5088450;28;20391;-77
2021/12/30 00:45:52;;;;;;;44.58;9.73;;;;;;;10.58;100.00;101061.00;5091226;28;20022;-77
2021/12/30 00:48:18;;;;;;;43.20;10.00;;;;;;;10.59;100.00;101055.63;5109512;28;20395;-77
2021/12/30 00:50:44;;;;;;;44.90;8.88;;;;;;;10.62;100.00;101063.31;5109068;28;20059;-77
2021/12/30 00:53:10;;;;;;;49.42;9.18;;;;;;;10.65;100.00;101068.34;5090339;28;20031;-77
2021/12/30 00:55:37;;;;;;;45.15;9.25;;;;;;;10.65;100.00;101062.25;5081653;28;20027;-77
2021/12/30 00:58:03;;;;;;;49.03;9.05;;;;;;;10.67;100.00;101069.06;5109138;28;20015;-77
2021/12/30 01:00:32;;;;;;;44.28;8.88;;;;;;;10.68;100.00;101065.50;5097858;28;20060;-79
2021/12/30 01:02:57;;;;;;;39.05;8.20;;;;;;;10.70;100.00;101061.91;5108984;28;20015;-79
2021/12/30 01:05:23;;;;;;;46.30;8.13;;;;;;;10.73;100.00;101062.53;5107834;28;20032;-79
2021/12/30 01:07:49;;;;;;;46.55;8.82;;;;;;;10.75;100.00;101062.44;5108421;28;20058;-77
2021/12/30 01:10:20;;;;;;;44.67;7.60;;;;;;;10.76;100.00;101059.69;5108806;28;20143;-77
2021/12/30 01:12:46;;;;;;;45.70;8.05;;;;;;;10.79;100.00;101066.53;5089463;28;20502;-77
2021/12/30 01:15:14;;;;;;;41.50;7.50;;;;;;;10.81;100.00;101069.91;5090215;28;20019;-77
2021/12/30 01:20:07;;;;;;;43.22;7.85;;;;;;;10.83;100.00;101076.75;5108228;28;20067;-77
2021/12/30 01:22:33;;;;;;;47.35;8.00;;;;;;;10.85;100.00;101079.25;5108248;28;20479;-77
2021/12/30 01:25:00;;;;;;;38.63;7.35;;;;;;;10.85;100.00;101080.09;5090632;28;20027;-77
2021/12/30 01:27:25;;;;;;;43.17;8.05;;;;;;;10.90;100.00;101074.50;5107472;28;20494;-77
2021/12/30 01:29:51;;;;;;;46.85;8.27;;;;;;;10.91;100.00;101074.41;5108348;28;20032;-77
2021/12/30 01:32:17;;;;;;;46.80;8.52;;;;;;;10.93;100.00;101076.91;5108595;28;20440;-78
2021/12/30 01:34:43;;;;;;;43.35;8.32;;;;;;;10.92;100.00;101069.97;5095869;28;20036;-78
2021/12/30 01:37:09;;;;;;;43.17;8.75;;;;;;;11.00;100.00;101075.53;5108856;28;20110;-77
2021/12/30 01:39:38;;;;;;;45.17;9.40;;;;;;;11.05;100.00;101075.19;5090531;28;20411;-78
2021/12/30 01:42:05;;;;;;;50.22;9.98;;;;;;;11.06;100.00;101080.34;5108102;28;20076;-77
2021/12/30 01:44:32;;;;;;;38.05;8.65;;;;;;;11.10;100.00;101079.16;5089919;28;20423;-77
2021/12/30 01:46:58;;;;;;;39.97;9.73;;;;;;;11.10;100.00;101071.25;5092312;28;20016;-77
2021/12/30 01:49:24;;;;;;;47.25;9.57;;;;;;;11.12;100.00;101066.72;5112080;28;20511;-77
2021/12/30 01:51:50;;;;;;;40.95;9.00;;;;;;;11.16;100.00;101065.56;5107785;28;20062;-77
2021/12/30 01:54:15;;;;;;;43.08;9.63;;;;;;;11.15;100.00;101077.03;5094234;28;20390;-77
2021/12/30 01:56:42;;;;;;;39.15;9.15;;;;;;;11.18;100.00;101074.19;5094085;28;20031;-77
2021/12/30 01:59:08;;;;;;;40.75;10.25;;;;;;;11.21;100.00;101073.97;5094194;28;20038;-77
2021/12/30 02:01:34;;;;;;;41.88;10.10;;;;;;;11.23;100.00;101071.25;5093656;28;20031;-77
2021/12/30 02:04:00;;;;;;;42.05;9.75;;;;;;;11.25;100.00;101066.69;5094094;28;20102;-77
2021/12/30 02:06:26;;;;;;;32.33;9.52;;;;;;;11.30;100.00;101075.09;5094054;28;20027;-77
2021/12/30 02:08:51;;;;;;;33.13;9.18;;;;;;;11.30;100.00;101065.41;5106066;28;20347;-77
2021/12/30 02:11:18;;;;;;;41.78;10.27;;;;;;;11.33;100.00;101064.34;5111559;28;20490;-76
2021/12/30 02:13:45;;;;;;;38.33;10.50;;;;;;;11.36;100.00;101079.06;5093216;28;20051;-77
2021/12/30 02:16:15;;;;;;;36.17;9.88;;;;;;;11.38;100.00;101079.78;5110709;28;20106;-77
2021/12/30 02:18:41;;;;;;;41.28;9.70;;;;;;;11.36;100.00;101077.28;5093628;28;20020;-78
2021/12/30 02:21:06;;;;;;;36.53;10.38;;;;;;;11.39;100.00;101078.84;5093845;28;20028;-77
2021/12/30 02:23:35;;;;;;;48.33;9.80;;;;;;;11.40;100.00;101075.25;5089151;28;20046;-77
2021/12/30 02:26:15;;;;;;;37.85;9.55;;;;;;;11.43;100.00;101075.03;5107949;28;20603;-77
2021/12/30 02:28:41;;;;;;;43.05;9.38;;;;;;;11.43;100.00;101085.56;5103125;28;20032;-77
2021/12/30 02:31:19;;;;;;;38.50;9.35;;;;;;;11.43;100.00;101081.13;5111233;28;20023;-77
2021/12/30 02:33:46;;;;;;;30.13;8.25;;;;;;;11.45;100.00;101070.47;5111948;28;20110;-77
2021/12/30 02:36:13;;;;;;;31.52;9.00;;;;;;;11.47;100.00;101077.31;5111248;28;20111;-76
2021/12/30 02:38:44;;;;;;;30.45;8.70;;;;;;;11.47;100.00;101079.97;5110324;28;20027;-77
2021/12/30 02:41:14;;;;;;;30.85;9.05;;;;;;;11.51;100.00;101080.56;5109048;28;20027;-77
2021/12/30 02:43:40;;;;;;;34.47;9.93;;;;;;;11.54;100.00;101082.97;5090363;28;20039;-77
2021/12/30 02:46:05;;;;;;;34.75;9.82;;;;;;;11.51;100.00;101073.50;5111428;28;20491;-79
2021/12/30 02:48:33;;;;;;;36.30;8.88;;;;;;;11.56;100.00;101075.78;5092356;28;20071;-76
2021/12/30 02:51:02;;;;;;;22.75;8.52;;;;;;;11.58;100.00;101073.88;5111094;28;20034;-76
2021/12/30 02:53:27;;;;;;;31.67;8.68;;;;;;;11.63;100.00;101076.19;5093039;28;20096;-76
2021/12/30 02:55:54;;;;;;;30.17;9.10;;;;;;;11.60;100.00;101079.88;5111393;28;20031;-76
2021/12/30 02:58:24;;;;;;;28.52;8.95;;;;;;;11.63;100.00;101087.59;5087727;28;20024;-77
2021/12/30 03:00:58;;;;;;;28.15;9.10;;;;;;;11.63;100.00;101086.75;5106696;28;20028;-77
2021/12/30 03:03:24;;;;;;;25.63;8.38;;;;;;;11.65;100.00;101090.94;5091342;28;20127;-77
2021/12/30 03:05:56;;;;;;;18.55;8.40;;;;;;;11.64;100.00;101089.25;5109616;28;20502;-77
2021/12/30 03:08:21;;;;;;;21.70;8.15;;;;;;;11.65;100.00;101090.94;5110833;28;20082;-77
2021/12/30 03:10:46;;;;;;;24.00;8.38;;;;;;;11.67;100.00;101083.75;5110515;28;20039;-77
2021/12/30 03:13:14;;;;;;;21.67;8.13;;;;;;;11.66;100.00;101087.34;5108889;28;20019;-77
2021/12/30 03:15:41;;;;;;;16.70;8.18;;;;;;;11.68;100.00;101095.97;5084806;28;20539;-77
2021/12/30 03:18:07;;;;;;;17.98;7.32;;;;;;;11.62;100.00;101080.63;5107826;28;20031;-76
2021/12/30 03:20:36;;;;;;;13.60;7.60;;;;;;;11.67;100.00;101099.56;5101464;28;20032;-77
2021/12/30 03:23:04;;;;;;;14.73;6.90;;;;;;;11.68;100.00;101095.97;5092462;28;20050;-76
2021/12/30 03:25:30;;;;;;;13.90;7.65;;;;;;;11.69;100.00;101095.03;5109571;28;20030;-77
2021/12/30 03:27:56;;;;;;;17.33;7.32;;;;;;;11.69;100.00;101100.31;5091960;28;20031;-77
2021/12/30 03:30:21;;;;;;;13.90;6.97;;;;;;;11.71;100.00;101103.66;5104078;28;20054;-76
2021/12/30 03:32:47;;;;;;;15.63;7.38;;;;;;;11.73;100.00;101099.13;5092361;28;20481;-77
2021/12/30 03:35:14;;;;;;;14.35;6.95;;;;;;;11.73;100.00;101098.28;5091310;28;20114;-76
2021/12/30 03:37:40;;;;;;;13.00;6.47;;;;;;;11.76;100.00;101098.88;5091634;28;20027;-76
2021/12/30 03:40:09;;;;;;;12.27;6.25;;;;;;;11.73;100.00;101093.84;5109918;28;20035;-76
2021/12/30 03:42:35;;;;;;;12.18;6.53;;;;;;;11.77;100.00;101091.81;5108898;28;20403;-76
2021/12/30 03:45:02;;;;;;;12.45;6.25;;;;;;;11.79;100.00;101092.56;5110392;28;20016;-76
2021/12/30 03:47:28;;;;;;;14.68;6.18;;;;;;;11.78;100.00;101091.72;5084569;28;20089;-77
2021/12/30 03:49:54;;;;;;;11.48;6.35;;;;;;;11.81;100.00;101096.78;5091741;28;20039;-76
2021/12/30 03:52:28;;;;;;;12.32;6.50;;;;;;;11.82;100.00;101090.53;5109538;28;20055;-76
2021/12/30 03:54:54;;;;;;;10.50;6.50;;;;;;;11.85;100.00;101090.31;5091664;28;20380;-76
2021/12/30 03:57:19;;;;;;;15.70;7.05;;;;;;;11.87;100.00;101100.75;5110173;28;20042;-76
2021/12/30 03:59:45;;;;;;;10.88;7.05;;;;;;;11.89;100.00;101091.75;5110696;28;20032;-76
2021/12/30 04:02:10;;;;;;;16.02;8.40;;;;;;;11.92;100.00;101104.69;5101854;28;20027;-76
2021/12/30 04:04:36;;;;;;;13.85;8.15;;;;;;;11.95;100.00;101097.50;5089373;28;20051;-77
2021/12/30 04:07:02;;;;;;;18.10;10.18;;;;;;;11.95;100.00;101106.25;5080047;28;20114;-77
2021/12/30 04:09:28;;;;;;;19.98;10.55;;;;;;;11.97;100.00;101098.25;5090625;28;20027;-77
2021/12/30 04:11:54;;;;;;;17.00;10.80;;;;;;;12.04;100.00;101096.84;5104763;28;20084;-77
2021/12/30 04:14:20;;;;;;;20.85;12.23;;;;;;;12.04;100.00;101099.47;5109207;28;20032;-76
2021/12/30 04:16:45;;;;;;;20.88;12.93;;;;;;;12.04;100.00;101097.69;5086040;28;20476;-76
2021/12/30 04:19:11;;;;;;;22.92;13.23;;;;;;;12.06;100.00;101106.31;5109275;28;20072;-76
2021/12/30 04:21:37;;;;;;;22.10;14.45;;;;;;;12.07;100.00;101113.28;5110119;28;20077;-76
2021/12/30 04:24:03;;;;;;;23.65;15.00;;;;;;;12.11;100.00;101113.88;5109406;28;20055;-77
2021/12/30 04:26:28;;;;;;;25.77;16.25;;;;;;;12.10;100.00;101114.84;5090055;28;20032;-76
2021/12/30 04:28:54;;;;;;;25.23;17.60;;;;;;;12.14;100.00;101111.84;5091367;28;20118;-76
2021/12/30 04:31:28;;;;;;;26.08;17.48;;;;;;;12.17;100.00;101119.53;5084246;27;1310234;-77
2021/12/30 04:33:53;;;;;;;27.10;18.20;;;;;;;12.20;100.00;101123.72;5113694;28;20028;-76
2021/12/30 04:36:22;;;;;;;23.92;17.35;;;;;;;12.20;100.00;101113.16;5122118;28;20403;-76
2021/12/30 04:38:47;;;;;;;26.02;18.30;;;;;;;12.23;100.00;101112.94;5109886;28;20019;-76
2021/12/30 04:41:13;;;;;;;26.60;18.35;;;;;;;12.27;100.00;101124.09;5124407;28;20395;-76
2021/12/30 04:43:39;;;;;;;29.45;20.52;;;;;;;12.30;100.00;101114.13;5123291;28;20039;-76
2021/12/30 04:46:04;;;;;;;27.23;20.25;;;;;;;12.31;100.00;101118.47;5126361;27;20487;-76
2021/12/30 04:48:30;;;;;;;26.65;20.30;;;;;;;12.32;100.00;101122.78;5106846;28;20024;-75
2021/12/30 04:50:55;;;;;;;24.50;20.67;;;;;;;12.33;100.00;101129.72;5113721;28;20065;-76
2021/12/30 04:53:21;;;;;;;27.20;20.98;;;;;;;12.36;100.00;101134.78;5124941;28;20034;-77
2021/12/30 04:55:47;;;;;;;27.27;20.88;;;;;;;12.35;100.00;101127.81;5117874;28;20019;-75
2021/12/30 04:58:14;;;;;;;25.95;20.88;;;;;;;12.39;100.00;101131.91;5124384;28;20376;-76
2021/12/30 05:00:40;;;;;;;27.05;21.92;;;;;;;12.41;100.00;101137.94;5125250;27;20495;-76
2021/12/30 05:05:48;;;;;;;26.42;20.45;;;;;;;12.43;100.00;101132.53;5116135;28;20163;-76
2021/12/30 05:08:16;;;;;;;25.58;20.40;;;;;;;12.44;100.00;101137.69;5121339;27;20026;-76
2021/12/30 05:10:42;;;;;;;23.65;20.08;;;;;;;12.43;100.00;101133.38;5123123;28;20050;-76
2021/12/30 05:13:08;;;;;;;22.38;19.33;;;;;;;12.48;100.00;101144.41;5124444;28;20452;-76
2021/12/30 05:15:35;;;;;;;20.83;18.52;;;;;;;12.48;100.00;101144.41;5124176;28;20114;-76
2021/12/30 05:18:01;;;;;;;19.85;17.65;;;;;;;12.51;100.00;101143.31;5122872;27;20114;-76
2021/12/30 05:20:27;;;;;;;17.92;16.02;;;;;;;12.53;100.00;101152.81;5105732;28;20081;-76
2021/12/30 05:22:52;;;;;;;16.27;14.57;;;;;;;12.52;100.00;101161.69;5098383;28;20115;-76
2021/12/30 05:25:19;;;;;;;15.75;13.82;;;;;;;12.54;100.00;101149.19;5123442;28;20023;-76
2021/12/30 05:27:45;;;;;;;14.00;12.50;;;;;;;12.60;100.00;101158.44;5115294;27;20027;-76
2021/12/30 05:30:13;;;;;;;12.18;11.07;;;;;;;12.60;100.00;101161.09;5117202;28;20051;-76
2021/12/30 05:32:39;;;;;;;12.70;11.40;;;;;;;12.62;100.00;101171.53;5125367;27;20031;-77
2021/12/30 05:35:07;;;;;;;12.40;11.15;;;;;;;12.64;100.00;101169.59;5125301;27;20031;-76
2021/12/30 05:37:32;;;;;;;11.70;10.60;;;;;;;12.64;100.00;101175.72;5124727;27;20183;-76
2021/12/30 05:39:58;;;;;;;10.95;10.05;;;;;;;12.63;100.00;101175.84;5122869;28;20051;-76
2021/12/30 05:42:24;;;;;;;11.02;9.98;;;;;;;12.66;100.00;101178.25;5105751;27;20027;-76
2021/12/30 05:44:54;;;;;;;10.40;9.45;;;;;;;12.67;100.00;101185.19;5105135;28;20055;-76
2021/12/30 05:47:20;;;;;;;9.80;9.00;;;;;;;12.67;100.00;101190.47;5110491;28;20107;-76
2021/12/30 05:49:46;;;;;;;9.57;8.73;;;;;;;12.68;100.00;101189.53;5111261;28;20031;-76
2021/12/30 05:52:12;;;;;;;9.60;8.70;;;;;;;12.70;100.00;101199.00;5100126;28;20103;-77
2021/12/30 05:54:38;;;;;;;10.07;9.18;;;;;;;12.69;100.00;101192.03;5110613;27;20023;-77
2021/12/30 05:57:04;;;;;;;12.00;10.90;;;;;;;12.71;100.00;101197.19;5110608;28;20173;-77
2021/12/30 05:59:29;;;;;;;13.77;12.45;;;;;;;12.70;100.00;101196.38;5108252;28;20098;-76
2021/12/30 06:01:55;;;;;;;13.82;12.63;;;;;;;12.73;100.00;101192.66;5099150;28;20024;-76
2021/12/30 06:04:20;;;;;;;14.68;13.27;;;;;;;12.73;100.00;101190.00;5109953;28;20023;-77
2021/12/30 06:06:45;;;;;;;15.43;13.95;;;;;;;12.73;100.00;101188.22;5109303;28;20020;-76
2021/12/30 06:09:14;;;;;;;16.60;15.00;;;;;;;12.72;100.00;101183.03;5110181;28;20085;-76
2021/12/30 06:11:39;;;;;;;16.23;14.73;;;;;;;12.75;100.00;101182.81;5111513;28;20024;-77
2021/12/30 06:14:05;;;;;;;15.30;13.90;;;;;;;12.77;100.00;101191.44;5106694;28;20451;-76
2021/12/30 06:16:31;;;;;;;15.25;13.80;;;;;;;12.77;100.00;101191.44;5106663;28;20417;-76
2021/12/30 06:18:57;;;;;;;13.80;12.60;;;;;;;12.75;100.00;101190.72;5098317;28;20020;-77
2021/12/30 06:21:23;;;;;;;13.70;12.50;;;;;;;12.75;100.00;101204.75;5100599;28;20107;-77
2021/12/30 06:23:48;;;;;;;12.20;11.13;;;;;;;12.72;100.00;101199.72;5091853;28;20077;-76
2021/12/30 06:26:13;;;;;;;11.55;10.43;;;;;;;12.75;100.00;101193.38;5106370;28;20443;-77
2021/12/30 06:28:39;;;;;;;10.55;9.63;;;;;;;12.75;100.00;101198.66;5090359;28;20036;-76
2021/12/30 06:31:04;;;;;;;10.63;9.63;;;;;;;12.75;100.00;101196.84;5089902;28;20516;-77
2021/12/30 06:33:29;;;;;;;10.55;9.45;;;;;;;12.76;100.00;101192.41;5091660;28;20026;-77
2021/12/30 06:35:55;;;;;;;10.02;9.13;;;;;;;12.76;100.00;101189.75;5094748;28;20039;-77
2021/12/30 06:38:20;;;;;;;9.77;8.88;;;;;;;12.76;100.00;101190.59;5090827;28;20115;-77
2021/12/30 06:40:45;;;;;;;9.00;8.10;;;;;;;12.74;100.00;101184.59;5095638;28;20043;-77
2021/12/30 06:43:14;;;;;;;9.45;8.63;;;;;;;12.78;100.00;101182.56;5108506;28;20019;-77
2021/12/30 06:45:39;;;;;;;9.45;8.55;;;;;;;12.77;100.00;101186.16;5105995;28;20032;-77
2021/12/30 06:48:06;;;;;;;9.02;8.13;;;;;;;12.79;100.00;101206.22;5090165;28;20113;-77
2021/12/30 06:50:33;;;;;;;8.90;7.88;;;;;;;12.78;100.00;101208.97;5092878;28;20518;-77
2021/12/30 06:52:59;;;;;;;7.63;6.80;;;;;;;12.80;100.00;101207.03;5094551;28;20119;-77
2021/12/30 06:55:24;;;;;;;8.00;7.25;;;;;;;12.78;100.00;101216.88;5106338;28;20105;-77
2021/12/30 06:57:50;;;;;;;7.82;6.28;;;;;;;12.77;100.00;101213.41;5102722;28;20024;-77
2021/12/30 07:00:16;;;;;;;6.82;5.88;;;;;;;12.77;100.00;101217.84;5108283;28;20113;-77
2021/12/30 07:02:43;;;;;;;6.32;5.72;;;;;;;12.77;100.00;101225.78;5109526;28;20023;-77
2021/12/30 07:05:09;;;;;;;6.40;5.80;;;;;;;12.76;100.00;101217.00;5108498;28;20062;-76
2021/12/30 07:07:34;;;;;;;9.45;6.88;;;;;;;12.79;100.00;101229.13;5107752;28;20054;-76
2021/12/30 07:09:59;;;;;;;7.57;6.57;;;;;;;12.81;100.00;101232.53;5104542;28;20031;-77
2021/12/30 07:12:25;;;;;;;8.68;7.10;;;;;;;12.80;100.00;101228.19;5104088;28;20059;-77
2021/12/30 07:14:50;;;;;;;9.65;8.63;;;;;;;12.78;100.00;101241.50;5091286;28;20027;-77
2021/12/30 07:17:16;;;;;;;10.40;8.98;;;;;;;12.83;100.00;101241.16;5092886;28;20479;-77
2021/12/30 07:19:41;;;;;;;11.27;9.50;;;;;;;12.83;100.00;101243.81;5088349;28;20054;-77
2021/12/30 07:22:07;;;;;;;10.80;9.43;;;;;;;12.81;100.00;101249.22;5090502;28;20155;-78
2021/12/30 07:24:32;;;;;;;12.15;9.80;;;;;;;12.83;100.00;101255.22;5089758;28;20112;-77
2021/12/30 07:26:57;;;;;;;11.68;10.48;;;;;;;12.83;100.00;101251.72;5102693;28;20020;-77
2021/12/30 07:29:22;;;;;;;11.13;10.00;;;;;;;12.80;100.00;101251.94;5108501;28;20031;-78
2021/12/30 07:31:48;;;;;;;10.43;9.43;;;;;;;12.83;100.00;101260.50;5109511;28;20067;-77
2021/12/30 07:34:14;;;;;;;10.63;9.45;;;;;;;12.83;100.00;101275.50;5107930;28;20090;-77
2021/12/30 07:36:39;;;;;;;10.02;9.02;;;;;;;12.82;100.00;101266.75;5108050;28;20031;-77
2021/12/30 07:39:05;;;;;;;11.00;8.65;;;;;;;12.83;100.00;101262.28;5103478;28;20024;-77
2021/12/30 07:41:32;;;;;;;10.98;8.05;;;;;;;12.83;100.00;101278.97;5090107;28;20053;-77
2021/12/30 07:43:57;;;;;;;9.13;7.50;;;;;;;12.84;100.00;101271.91;5104243;28;20332;-77
2021/12/30 07:46:23;;;;;;;9.40;8.05;;;;;;;12.83;100.00;101270.22;5102347;28;20077;-78
2021/12/30 07:48:48;;;;;;;8.75;7.85;;;;;;;12.85;100.00;101276.22;5108772;28;20111;-77
2021/12/30 07:51:13;;;;;;;10.32;9.32;;;;;;;12.84;100.00;101279.81;5109375;28;20080;-77
2021/12/30 07:53:40;;;;;;;11.55;8.60;;;;;;;12.83;100.00;101280.78;5108142;28;20070;-77
2021/12/30 07:56:07;;;;;;;8.75;7.72;;;;;;;12.86;100.00;101280.53;5109037;28;20023;-77
2021/12/30 07:58:33;;;;;;;8.45;7.57;;;;;;;12.88;100.00;101286.56;5092490;28;20255;-78
2021/12/30 08:00:58;;;;;;;8.23;7.20;;;;;;;12.89;100.00;101279.47;5093370;28;20373;-77
2021/12/30 08:03:24;;;;;;;7.50;6.80;;;;;;;12.89;100.00;101275.03;5102474;28;20107;-77
2021/12/30 08:05:49;;;;;;;8.32;6.90;;;;;;;12.90;100.00;101265.31;5090184;28;20497;-77
2021/12/30 08:08:15;;;;;;;7.95;5.88;;;;;;;12.90;100.00;101263.50;5100270;28;20035;-77
2021/12/30 08:10:40;;;;;;;6.00;5.40;;;;;;;12.90;100.00;101268.78;5108483;28;20034;-77
2021/12/30 08:13:06;;;;;;;6.22;5.60;;;;;;;12.89;100.00;101282.94;5104283;28;20161;-77
2021/12/30 08:15:31;;;;;;;6.55;5.03;;;;;;;12.88;100.00;101283.91;5094295;28;20027;-77
2021/12/30 08:17:57;;;;;;;6.82;5.28;;;;;;;12.89;100.00;101290.03;5097894;28;20087;-77
2021/12/30 08:20:22;;;;;;;6.50;4.80;;;;;;;12.85;100.00;101300.84;5102364;28;20066;-77
2021/12/30 08:22:50;;;;;;;6.22;4.45;;;;;;;12.85;100.00;101307.91;5100284;28;20039;-77
2021/12/30 08:25:17;;;;;;;4.55;3.80;;;;;;;12.86;100.00;101304.31;5102451;28;20036;-77
2021/12/30 08:27:44;;;;;;;4.93;3.58;;;;;;;12.88;100.00;101307.69;5100484;28;20028;-77
2021/12/30 08:30:16;;;;;;;4.95;3.13;;;;;;;12.87;100.00;101303.34;5100708;28;20039;-77
2021/12/30 08:32:43;;;;;;;5.38;3.63;;;;;;;12.88;100.00;101291.84;5099344;28;20391;-78
2021/12/30 08:35:10;;;;;;;5.40;3.00;;;;;;;12.90;100.00;101295.19;5101924;28;20111;-77
2021/12/30 08:37:36;;;;;;;5.65;3.80;;;;;;;12.90;100.00;101300.47;5098898;28;20480;-77
2021/12/30 08:40:05;;;;;;;5.25;3.70;;;;;;;12.92;100.00;101309.13;5104815;28;20034;-77
2021/12/30 08:42:31;;;;;;;5.13;4.32;;;;;;;12.91;100.00;101303.97;5097709;28;20361;-77
2021/12/30 08:44:58;;;;;;;6.75;4.32;;;;;;;12.93;100.00;101313.44;5107141;28;20035;-77
2021/12/30 08:47:26;;;;;;;5.45;4.22;;;;;;;12.93;100.00;101317.88;5092578;28;20084;-77
2021/12/30 08:49:53;;;;;;;7.18;4.50;;;;;;;12.93;100.00;101325.81;5107690;28;20047;-78
2021/12/30 08:52:21;;;;;;;5.78;4.30;;;;;;;12.90;100.00;101326.88;5107180;28;20031;-81
2021/12/30 08:54:47;;;;;;;7.55;4.20;;;;;;;12.94;100.00;101330.97;5100028;28;20111;-79
2021/12/30 08:57:14;;;;;;;6.53;4.63;;;;;;;12.96;100.00;101350.19;5096788;28;20103;-78
2021/12/30 08:59:39;;;;;;;6.65;4.75;;;;;;;12.97;100.00;101357.16;5089343;28;20286;-78
2021/12/30 09:02:06;;;;;;;8.25;5.15;;;;;;;12.99;100.00;101354.41;5094027;28;20436;-78
2021/12/30 09:04:32;;;;;;;7.70;4.88;;;;;;;13.01;100.00;101353.31;5096234;28;20065;-78
2021/12/30 09:06:58;;;;;;;7.10;4.55;;;;;;;12.99;100.00;101342.03;5106360;28;20148;-79
2021/12/30 09:09:24;;;;;;;6.32;4.75;;;;;;;13.03;100.00;101346.13;5091772;28;20020;-78
2021/12/30 09:11:49;;;;;;;8.25;5.10;;;;;;;13.08;100.00;101343.97;5102050;28;20039;-78
2021/12/30 09:14:15;;;;;;;6.68;5.13;;;;;;;13.08;100.00;101330.75;5100364;28;20027;-79
2021/12/30 09:16:41;;;;;;;6.15;4.68;;;;;;;13.10;100.00;101336.75;5097023;28;20357;-79
2021/12/30 09:19:07;;;;;;;7.90;4.88;;;;;;;13.10;100.00;101342.03;5108997;28;20035;-78
2021/12/30 09:21:32;;;;;;;9.68;4.80;;;;;;;13.13;100.00;101347.09;5110413;28;20023;-78
2021/12/30 09:23:57;;;;;;;8.27;4.70;;;;;;;13.17;100.00;101353.00;5104568;28;20039;-81
2021/12/30 09:26:23;;;;;;;9.77;4.63;;;;;;;13.19;100.00;101356.38;5098936;28;20035;-79
2021/12/30 09:28:49;;;;;;;10.10;4.35;;;;;;;13.23;100.00;101349.09;5105766;28;20035;-78
2021/12/30 09:31:16;;;;;;;8.13;4.32;;;;;;;13.24;100.00;101350.75;5098940;28;20451;-78
2021/12/30 09:33:42;;;;;;;7.82;3.85;;;;;;;13.29;100.00;101359.19;5103695;28;20429;-78
2021/12/30 09:36:08;;;;;;;11.63;3.83;;;;;;;13.29;100.00;101362.66;5111623;28;20028;-78
2021/12/30 09:38:33;;;;;;;7.43;3.72;;;;;;;13.35;99.68;101378.03;5109560;28;20020;-79
2021/12/30 09:40:59;;;;;;;8.27;3.58;;;;;;;13.35;99.20;101366.63;5104246;28;20035;-78
2021/12/30 09:43:25;;;;;;;9.40;3.70;;;;;;;13.35;99.02;101371.91;5108287;28;20376;-78
2021/12/30 09:45:55;;;;;;;9.82;3.58;;;;;;;13.32;98.64;101369.50;5103766;28;20081;-83
2021/12/30 09:48:25;;;;;;;10.55;3.72;;;;;;;13.37;98.41;101385.84;5110116;28;20031;-84
2021/12/30 09:50:55;;;;;;;12.48;3.97;;;;;;;13.35;98.38;101372.75;5108576;28;20403;-83
2021/12/30 09:53:26;;;;;;;9.13;3.65;;;;;;;13.39;98.02;101383.94;5110058;28;20402;-83
2021/12/30 09:55:57;;;;;;;15.27;4.20;;;;;;;13.38;97.24;101383.09;5111278;28;20031;-83
2021/12/30 09:58:27;;;;;;;10.70;3.97;;;;;;;13.39;97.06;101382.13;5109000;28;20020;-83
2021/12/30 10:00:56;;;;;;;10.32;3.95;;;;;;;13.42;97.71;101381.03;5103898;28;20026;-83
2021/12/30 10:03:22;;;;;;;14.10;3.92;;;;;;;13.45;96.98;101378.16;5110034;28;20042;-78
2021/12/30 10:05:48;;;;;;;12.07;3.80;;;;;;;13.45;95.99;101380.81;5099565;28;20028;-78
2021/12/30 10:08:17;;;;;;;13.00;4.00;;;;;;;13.48;96.21;101383.22;5099677;28;20023;-78
2021/12/30 10:10:46;;;;;;;11.60;3.88;;;;;;;13.46;96.55;101382.50;5098652;28;20475;-78
2021/12/30 10:13:21;;;;;;;14.30;3.70;;;;;;;13.49;96.69;101391.03;5101320;28;20046;-78
2021/12/30 10:16:09;;;;;;;15.00;3.63;;;;;;;13.48;96.35;101384.06;5103120;28;20031;-78
2021/12/30 10:18:47;;;;;;;9.02;3.35;;;;;;;13.51;96.37;101390.91;5101084;28;20034;-78
2021/12/30 10:21:18;;;;;;;9.77;3.40;;;;;;;13.52;96.43;101389.09;5092341;28;20019;-78
2021/12/30 10:23:47;;;;;;;13.63;3.58;;;;;;;13.53;96.33;101391.63;5092287;28;20071;-78
2021/12/30 10:26:15;;;;;;;11.85;3.47;;;;;;;13.53;95.50;101381.03;5106286;28;20034;-78
2021/12/30 10:28:43;;;;;;;12.90;3.60;;;;;;;13.56;95.50;101391.38;5110161;28;20030;-78
2021/12/30 10:31:12;;;;;;;12.75;3.72;;;;;;;13.58;95.79;101399.19;5109523;28;20074;-81
2021/12/30 10:33:45;;;;;;;13.15;3.70;;;;;;;13.59;95.60;101395.59;5099868;28;20032;-78
2021/12/30 10:36:26;;;;;;;13.50;3.80;;;;;;;13.59;95.76;101385.84;5105435;28;20031;-78
2021/12/30 10:38:53;;;;;;;13.82;3.97;;;;;;;13.59;94.86;101392.94;5109835;28;20035;-78
2021/12/30 10:41:23;;;;;;;11.70;3.75;;;;;;;13.60;95.45;101391.97;5109157;28;20498;-78
2021/12/30 10:43:55;;;;;;;15.43;3.90;;;;;;;13.60;95.39;101392.81;5105297;28;20028;-78
2021/12/30 10:46:23;;;;;;;12.27;3.40;;;;;;;13.62;94.70;101388.28;5102465;28;20043;-78
2021/12/30 10:48:53;;;;;;;13.63;3.53;;;;;;;13.70;94.27;101382.41;5103332;28;20027;-78
2021/12/30 10:51:31;;;;;;;12.43;3.53;;;;;;;13.70;94.22;101396.47;5101044;27;20027;-78
2021/12/30 10:53:59;;;;;;;11.70;3.40;;;;;;;13.72;94.25;101397.19;5100852;28;20027;-78
2021/12/30 10:56:29;;;;;;;11.80;3.35;;;;;;;13.73;94.16;101393.56;5102573;28;20107;-78
2021/12/30 10:59:07;;;;;;;19.02;4.47;;;;;;;13.75;92.92;101396.94;5103095;28;20433;-78
2021/12/30 11:01:41;;;;;;;13.48;3.13;;;;;;;13.76;94.28;101392.47;5104344;28;20016;-79
2021/12/30 11:04:08;;;;;;;13.40;3.75;;;;;;;13.76;92.76;101390.69;5113853;27;20044;-79
2021/12/30 11:06:34;;;;;;;12.05;3.47;;;;;;;13.75;93.10;101386.34;5100461;28;20641;-79
2021/12/30 11:09:12;;;;;;;10.80;3.53;;;;;;;13.78;93.37;101396.69;5101358;28;20024;-79
2021/12/30 11:11:44;;;;;;;11.55;3.35;;;;;;;13.78;92.92;101398.50;5098270;28;20059;-78
2021/12/30 11:14:16;;;;;;;13.55;4.15;;;;;;;13.78;92.59;101375.53;5101390;28;20023;-79